Time;durP1;ratioP1;P1;durP2;ratioP2;P2;SDS_P1;SDS_P2;PMS_P1;PMS_P2;Temp;Humidity;BMP_temperature;BMP_pressure;BME280_temperature;BME280_humidity;BME280_pressure;Samples;Min_cycle;Max_cycle;Signal;HPM_P1;HPM_P2
2022/07/04 00:00:52;;;;;;;0.60;0.60;;;27.20;51.10;;;;;;5045620;28;20123;-62
2022/07/04 00:03:20;;;;;;;0.47;0.47;;;27.20;51.20;;;;;;5043966;28;20088;-62
2022/07/04 00:05:47;;;;;;;0.60;0.50;;;27.20;51.70;;;;;;5045385;28;20533;-62
2022/07/04 00:08:14;;;;;;;0.60;0.60;;;27.20;51.20;;;;;;5045459;28;20114;-62
2022/07/04 00:10:41;;;;;;;0.80;0.80;;;27.20;51.30;;;;;;5044841;28;20080;-62
2022/07/04 00:13:08;;;;;;;0.57;0.57;;;27.20;51.30;;;;;;5046241;28;20128;-62
2022/07/04 00:15:35;;;;;;;0.70;0.70;;;27.10;51.20;;;;;;5044628;28;20127;-63
2022/07/04 00:18:02;;;;;;;0.50;0.50;;;27.10;51.20;;;;;;5045213;28;20147;-63
2022/07/04 00:20:29;;;;;;;0.60;0.60;;;27.10;51.30;;;;;;5045211;28;20084;-62
2022/07/04 00:22:56;;;;;;;0.52;0.52;;;27.10;51.20;;;;;;5045272;28;20083;-64
2022/07/04 00:25:24;;;;;;;0.55;0.55;;;27.10;51.30;;;;;;5045075;28;20486;-62
2022/07/04 00:27:51;;;;;;;0.80;0.65;;;27.10;51.80;;;;;;5045018;28;20171;-65
2022/07/04 00:30:18;;;;;;;0.75;0.75;;;27.10;51.30;;;;;;5044953;28;20135;-62
2022/07/04 00:32:45;;;;;;;0.57;0.57;;;27.10;51.30;;;;;;5043766;28;20076;-62
2022/07/04 00:35:12;;;;;;;0.52;0.52;;;27.10;51.30;;;;;;5044754;28;20708;-62
2022/07/04 00:37:39;;;;;;;0.57;0.57;;;27.10;51.30;;;;;;5045659;28;20166;-62
2022/07/04 00:40:07;;;;;;;0.60;0.60;;;27.10;51.30;;;;;;5044650;28;20135;-62
2022/07/04 00:42:34;;;;;;;0.70;0.70;;;27.10;51.30;;;;;;5045425;28;20080;-62
2022/07/04 00:45:02;;;;;;;1.58;0.60;;;27.10;51.90;;;;;;5044849;28;20137;-62
2022/07/04 00:47:29;;;;;;;0.50;0.50;;;27.10;51.40;;;;;;5044053;28;20490;-62
2022/07/04 00:49:56;;;;;;;0.50;0.50;;;27.00;51.30;;;;;;5043906;28;20088;-62
2022/07/04 00:52:23;;;;;;;0.50;0.50;;;27.10;51.30;;;;;;5044992;28;20140;-62
2022/07/04 00:54:51;;;;;;;0.50;0.50;;;27.10;51.40;;;;;;5045091;28;20126;-62
2022/07/04 00:57:18;;;;;;;0.77;0.50;;;27.00;51.30;;;;;;5044356;28;20680;-62
2022/07/04 00:59:45;;;;;;;0.50;0.50;;;27.10;51.40;;;;;;5043093;28;20609;-62
2022/07/04 01:02:12;;;;;;;0.57;0.57;;;27.00;51.30;;;;;;5045688;28;20049;-62
2022/07/04 01:04:39;;;;;;;0.60;0.60;;;27.10;51.40;;;;;;5044367;28;20052;-62
2022/07/04 01:07:07;;;;;;;0.50;0.50;;;27.10;51.40;;;;;;5044282;28;20553;-62
2022/07/04 01:09:35;;;;;;;0.50;0.50;;;27.10;51.40;;;;;;5045098;28;20044;-62
2022/07/04 01:12:02;;;;;;;0.60;0.60;;;27.10;51.40;;;;;;5044382;28;20049;-62
2022/07/04 01:14:29;;;;;;;0.55;0.55;;;27.00;51.40;;;;;;5045577;28;20193;-62
2022/07/04 01:16:56;;;;;;;0.63;0.63;;;27.00;51.40;;;;;;5048293;28;20069;-63
2022/07/04 01:19:24;;;;;;;0.50;0.50;;;27.00;51.40;;;;;;5048792;28;20485;-62
2022/07/04 01:21:51;;;;;;;0.63;0.63;;;27.00;51.40;;;;;;5048873;28;20136;-62
2022/07/04 01:24:18;;;;;;;1.23;0.60;;;27.00;51.40;;;;;;5049797;28;20139;-62
2022/07/04 01:26:45;;;;;;;0.60;0.60;;;27.00;51.40;;;;;;5048505;28;20075;-62
2022/07/04 01:29:12;;;;;;;3.92;0.70;;;27.00;51.40;;;;;;5046885;28;20071;-62
2022/07/04 01:31:39;;;;;;;0.70;0.70;;;27.00;51.40;;;;;;5047158;28;20107;-62
2022/07/04 01:34:06;;;;;;;0.65;0.65;;;27.00;51.50;;;;;;5047981;28;20520;-62
2022/07/04 01:36:34;;;;;;;0.50;0.50;;;27.00;51.40;;;;;;5048093;28;20077;-62
2022/07/04 01:39:02;;;;;;;0.73;0.73;;;27.00;51.40;;;;;;5048581;28;20122;-62
2022/07/04 01:41:35;;;;;;;0.63;0.50;;;27.00;51.50;;;;;;5047470;28;20144;-62
2022/07/04 01:44:03;;;;;;;0.40;0.40;;;27.00;51.50;;;;;;5048879;28;20477;-62
2022/07/04 01:46:30;;;;;;;0.68;0.68;;;27.00;51.50;;;;;;5048127;28;20241;-62
2022/07/04 01:48:57;;;;;;;0.50;0.50;;;27.00;51.50;;;;;;5047881;28;20055;-62
2022/07/04 01:51:24;;;;;;;0.60;0.60;;;27.00;52.10;;;;;;5048231;28;20045;-62
2022/07/04 01:53:51;;;;;;;0.52;0.52;;;27.00;51.50;;;;;;5047605;28;20080;-62
2022/07/04 01:56:19;;;;;;;0.40;0.40;;;27.00;51.50;;;;;;5048120;28;20132;-62
2022/07/04 01:58:46;;;;;;;0.60;0.60;;;27.00;51.50;;;;;;5047612;28;20136;-62
2022/07/04 02:04:02;;;;;;;0.70;0.70;;;27.00;51.60;;;;;;5047982;28;20041;-62
2022/07/04 02:06:30;;;;;;;0.60;0.50;;;27.00;51.60;;;;;;5047310;28;20084;-62
2022/07/04 02:14:33;;;;;;;0.50;0.50;;;26.90;51.50;;;;;;5047849;28;20049;-62
2022/07/04 02:17:01;;;;;;;0.52;0.52;;;27.00;51.60;;;;;;5047006;28;20162;-62
2022/07/04 02:19:29;;;;;;;0.57;0.57;;;26.90;51.50;;;;;;5047442;28;20080;-62
2022/07/04 02:21:56;;;;;;;0.50;0.50;;;26.90;51.50;;;;;;5046798;28;20079;-62
2022/07/04 02:24:24;;;;;;;0.55;0.55;;;26.90;51.50;;;;;;5045924;28;20196;-62
2022/07/04 02:26:51;;;;;;;0.57;0.57;;;27.00;51.60;;;;;;5047070;28;20482;-62
2022/07/04 02:29:18;;;;;;;0.40;0.40;;;26.90;51.50;;;;;;5047058;28;20084;-62
2022/07/04 02:31:46;;;;;;;0.65;0.65;;;26.90;51.50;;;;;;5047355;28;20045;-62
2022/07/04 02:34:13;;;;;;;0.50;0.50;;;26.90;51.60;;;;;;5046156;28;20140;-62
2022/07/04 02:36:40;;;;;;;0.77;0.77;;;26.90;51.50;;;;;;5047388;28;20049;-62
2022/07/04 02:39:07;;;;;;;0.70;0.70;;;26.90;51.50;;;;;;5047503;28;20287;-62
2022/07/04 02:41:34;;;;;;;0.60;0.60;;;26.90;52.10;;;;;;5046093;28;20489;-62
2022/07/04 02:44:01;;;;;;;0.75;0.75;;;26.90;51.50;;;;;;5047054;28;20714;-62
2022/07/04 02:46:31;;;;;;;0.50;0.50;;;26.90;51.50;;;;;;5046994;28;20571;-62
2022/07/04 02:48:59;;;;;;;0.90;0.90;;;26.90;51.50;;;;;;5046752;28;20053;-62
2022/07/04 02:51:26;;;;;;;0.60;0.60;;;26.90;51.50;;;;;;5047291;28;20048;-62
2022/07/04 02:53:54;;;;;;;0.45;0.45;;;26.90;51.60;;;;;;5046209;28;20186;-62
2022/07/04 02:56:21;;;;;;;0.68;0.50;;;26.90;51.60;;;;;;5046471;28;20124;-64
2022/07/04 02:58:48;;;;;;;0.68;0.68;;;26.90;51.60;;;;;;5046441;28;20559;-62
2022/07/04 03:01:16;;;;;;;0.77;0.70;;;26.90;51.60;;;;;;5046905;28;20447;-62
2022/07/04 03:03:43;;;;;;;0.65;0.65;;;26.90;51.60;;;;;;5046309;28;20136;-62
2022/07/04 03:06:10;;;;;;;0.50;0.50;;;26.90;51.60;;;;;;5046674;28;20482;-64
2022/07/04 03:08:37;;;;;;;0.60;0.60;;;26.90;51.60;;;;;;5046414;28;20092;-62
2022/07/04 03:11:05;;;;;;;0.60;0.60;;;26.90;51.60;;;;;;5046228;28;20056;-62
2022/07/04 03:13:33;;;;;;;0.65;0.60;;;26.90;51.60;;;;;;5046432;28;20151;-62
2022/07/04 03:16:00;;;;;;;0.70;0.70;;;26.90;51.60;;;;;;5046767;28;20109;-62
2022/07/04 03:18:27;;;;;;;0.60;0.60;;;26.90;51.60;;;;;;5044600;28;20076;-62
2022/07/04 03:20:55;;;;;;;0.77;0.77;;;26.90;51.60;;;;;;5046621;28;20053;-62
2022/07/04 03:23:22;;;;;;;0.60;0.60;;;26.90;51.50;;;;;;5045988;28;20548;-62
2022/07/04 03:25:49;;;;;;;0.57;0.57;;;26.90;51.50;;;;;;5046307;28;20685;-62
2022/07/04 03:28:16;;;;;;;0.50;0.50;;;26.90;51.50;;;;;;5043896;28;20065;-62
2022/07/04 03:30:43;;;;;;;0.60;0.60;;;27.00;51.50;;;;;;5046195;28;20079;-62
2022/07/04 03:33:11;;;;;;;0.43;0.43;;;27.00;51.50;;;;;;5045689;28;20080;-62
2022/07/04 03:35:38;;;;;;;0.70;0.70;;;27.00;51.50;;;;;;5025793;28;20092;-62
2022/07/04 03:38:05;;;;;;;0.68;0.68;;;27.00;51.50;;;;;;5024928;28;20351;-62
2022/07/04 03:40:32;;;;;;;1.20;0.75;;;27.00;51.40;;;;;;5034076;28;20037;-62
2022/07/04 03:42:59;;;;;;;0.60;0.60;;;27.00;51.30;;;;;;5044909;28;20041;-62
2022/07/04 03:45:26;;;;;;;0.50;0.50;;;27.00;51.30;;;;;;5045588;28;20099;-62
2022/07/04 03:47:54;;;;;;;0.60;0.60;;;27.10;51.30;;;;;;5045427;28;20091;-62
2022/07/04 03:50:21;;;;;;;0.65;0.65;;;27.10;51.30;;;;;;5043216;28;20080;-62
2022/07/04 03:52:48;;;;;;;0.60;0.60;;;27.10;51.20;;;;;;5044927;28;20080;-62
2022/07/04 03:55:15;;;;;;;0.63;0.63;;;27.10;51.10;;;;;;5045357;28;20103;-62
2022/07/04 03:57:42;;;;;;;0.57;0.57;;;27.10;51.10;;;;;;5046024;28;20091;-62
2022/07/04 04:00:10;;;;;;;0.60;0.60;;;27.10;51.10;;;;;;5044631;28;20051;-62
2022/07/04 04:02:37;;;;;;;0.52;0.52;;;27.20;51.10;;;;;;5034074;28;20088;-62
2022/07/04 04:05:27;;;;;;;0.60;0.60;;;27.20;51.10;;;;;;5042613;28;20051;-62
2022/07/04 04:07:55;;;;;;;0.52;0.52;;;27.20;51.00;;;;;;5042943;28;20545;-62
2022/07/04 04:10:24;;;;;;;0.88;0.88;;;27.20;51.00;;;;;;5045223;28;20114;-62
2022/07/04 04:12:51;;;;;;;0.47;0.47;;;27.20;50.90;;;;;;5045454;28;20128;-62
2022/07/04 04:15:18;;;;;;;0.50;0.50;;;27.30;50.90;;;;;;5045707;28;20409;-63
2022/07/04 04:17:46;;;;;;;0.50;0.50;;;27.30;50.90;;;;;;5044876;28;20414;-62
2022/07/04 04:20:13;;;;;;;0.63;0.63;;;27.30;50.80;;;;;;5045639;28;20056;-62
2022/07/04 04:22:41;;;;;;;0.63;0.63;;;27.30;50.70;;;;;;5045524;28;20445;-62
2022/07/04 04:25:08;;;;;;;0.55;0.55;;;27.30;50.70;;;;;;5043917;28;20090;-63
2022/07/04 04:27:35;;;;;;;0.75;0.75;;;27.30;50.60;;;;;;5045837;28;20158;-64
2022/07/04 04:30:04;;;;;;;1.95;0.60;;;27.40;50.60;;;;;;5045241;28;20448;-62
2022/07/04 04:32:31;;;;;;;0.60;0.60;;;27.40;50.60;;;;;;5045281;28;20131;-62
2022/07/04 04:34:59;;;;;;;1.05;0.50;;;27.40;50.50;;;;;;5043014;28;20132;-62
2022/07/04 04:37:26;;;;;;;0.60;0.60;;;27.50;50.60;;;;;;5045251;28;20076;-62
2022/07/04 04:39:53;;;;;;;0.60;0.60;;;27.50;50.50;;;;;;5044567;28;20560;-62
2022/07/04 04:42:20;;;;;;;0.50;0.50;;;27.50;50.40;;;;;;5044600;28;20577;-62
2022/07/04 04:44:47;;;;;;;0.60;0.60;;;27.50;50.40;;;;;;5044515;28;20049;-62
2022/07/04 04:47:15;;;;;;;0.70;0.70;;;27.50;50.30;;;;;;5045018;28;20525;-63
2022/07/04 04:49:42;;;;;;;0.60;0.60;;;27.60;50.30;;;;;;5049098;28;20052;-62
2022/07/04 04:52:09;;;;;;;0.50;0.50;;;27.50;50.20;;;;;;5052159;28;20477;-62
2022/07/04 04:54:37;;;;;;;0.60;0.60;;;27.60;50.20;;;;;;5049538;28;20091;-62
2022/07/04 04:57:05;;;;;;;0.57;0.57;;;27.60;50.20;;;;;;5050931;28;20095;-62
2022/07/04 04:59:32;;;;;;;0.68;0.60;;;27.60;50.70;;;;;;5049600;28;20305;-62
2022/07/04 05:02:00;;;;;;;1.08;0.60;;;27.60;50.10;;;;;;5054101;28;20045;-62
2022/07/04 05:04:27;;;;;;;0.60;0.60;;;27.70;50.10;;;;;;5052910;28;20048;-62
2022/07/04 05:06:54;;;;;;;1.17;0.50;;;27.60;50.00;;;;;;5053143;28;20045;-62
2022/07/04 05:09:22;;;;;;;0.70;0.70;;;27.60;50.30;;;;;;5043734;28;20128;-62
2022/07/04 05:11:49;;;;;;;0.80;0.80;;;27.50;50.50;;;;;;5053895;28;20418;-61
2022/07/04 05:14:16;;;;;;;0.50;0.50;;;27.30;50.70;;;;;;5052365;28;20041;-62
2022/07/04 05:16:44;;;;;;;0.77;0.77;;;27.10;51.10;;;;;;5046176;28;20490;-65
2022/07/04 05:19:11;;;;;;;0.90;0.90;;;26.90;51.50;;;;;;5047998;28;20040;-63
2022/07/04 05:21:38;;;;;;;0.85;0.85;;;26.80;51.90;;;;;;5048695;28;20053;-63
2022/07/04 05:24:06;;;;;;;0.80;0.80;;;26.70;52.30;;;;;;5046109;28;20469;-63
2022/07/04 05:26:35;;;;;;;0.90;0.90;;;26.50;52.40;;;;;;5060203;28;20075;-64
2022/07/04 05:29:03;;;;;;;0.70;0.70;;;26.20;52.60;;;;;;5050344;28;20052;-64
2022/07/04 05:31:30;;;;;;;0.85;0.85;;;26.00;52.80;;;;;;5046561;28;21356;-65
2022/07/04 05:33:58;;;;;;;0.88;0.88;;;25.80;53.00;;;;;;5049470;28;20098;-64
2022/07/04 05:36:26;;;;;;;0.80;0.80;;;25.50;53.20;;;;;;5050025;28;20091;-64
2022/07/04 05:38:59;;;;;;;0.80;0.80;;;25.30;53.40;;;;;;5051991;28;20131;-62
2022/07/04 05:41:26;;;;;;;1.05;1.05;;;25.10;53.60;;;;;;5041640;28;20091;-62
2022/07/04 05:43:53;;;;;;;0.90;0.90;;;24.80;53.80;;;;;;5045643;28;20041;-64
2022/07/04 05:46:25;;;;;;;1.23;0.77;;;24.70;53.90;;;;;;5043735;28;20567;-62
2022/07/04 05:48:52;;;;;;;1.65;1.10;;;24.60;54.20;;;;;;5047519;28;20478;-61
2022/07/04 05:51:19;;;;;;;1.38;1.27;;;24.50;54.30;;;;;;5044630;28;20478;-61
2022/07/04 05:53:47;;;;;;;1.27;1.25;;;24.30;54.30;;;;;;5037313;28;20106;-60
2022/07/04 05:56:14;;;;;;;1.40;1.30;;;24.20;54.20;;;;;;5046631;28;21302;-61
2022/07/04 05:58:42;;;;;;;1.42;1.40;;;24.10;54.40;;;;;;5045217;28;20505;-63
2022/07/04 06:01:09;;;;;;;1.70;1.60;;;24.00;54.50;;;;;;5043011;28;20040;-64
2022/07/04 06:03:36;;;;;;;3.15;1.60;;;23.90;54.60;;;;;;5040250;28;20102;-63
2022/07/04 06:06:04;;;;;;;1.70;1.60;;;23.80;54.60;;;;;;5046588;28;20079;-63
2022/07/04 06:08:31;;;;;;;1.52;1.42;;;23.70;54.70;;;;;;5044335;28;20119;-62
2022/07/04 06:10:59;;;;;;;2.03;1.80;;;23.70;54.60;;;;;;5041112;28;20060;-61
2022/07/04 06:13:27;;;;;;;1.83;1.73;;;23.60;54.60;;;;;;5043478;28;20045;-60
2022/07/04 06:15:54;;;;;;;1.90;1.73;;;23.50;54.80;;;;;;5045681;28;20473;-61
2022/07/04 06:18:21;;;;;;;1.75;1.65;;;23.50;54.90;;;;;;5040382;28;20115;-60
2022/07/04 06:20:49;;;;;;;3.30;2.15;;;23.40;55.30;;;;;;5039987;28;20492;-62
2022/07/04 06:23:16;;;;;;;2.45;2.20;;;23.40;55.30;;;;;;5038922;28;20080;-62
2022/07/04 06:25:45;;;;;;;1.60;1.50;;;23.40;55.30;;;;;;5042731;28;20045;-62
2022/07/04 06:28:12;;;;;;;2.70;1.75;;;23.30;55.60;;;;;;5037872;28;20041;-62
2022/07/04 06:30:57;;;;;;;4.85;2.65;;;23.30;55.70;;;;;;5031524;28;20060;-62
2022/07/04 06:33:25;;;;;;;1.63;1.52;;;23.30;56.00;;;;;;5032414;28;20438;-62
2022/07/04 06:35:56;;;;;;;2.08;1.88;;;23.30;56.00;;;;;;5035189;28;20401;-62
2022/07/04 06:38:26;;;;;;;4.03;1.85;;;23.30;56.30;;;;;;5032816;28;20107;-60
2022/07/04 06:40:55;;;;;;;1.98;1.88;;;23.30;56.40;;;;;;5030355;28;20133;-61
2022/07/04 06:43:23;;;;;;;2.00;1.80;;;23.20;56.30;;;;;;5034228;28;20054;-60
2022/07/04 06:45:50;;;;;;;1.60;1.50;;;23.20;56.60;;;;;;5031100;28;20060;-61
2022/07/04 06:48:19;;;;;;;1.70;1.60;;;23.20;56.70;;;;;;5033607;28;20056;-60
2022/07/04 06:50:46;;;;;;;2.80;1.95;;;23.20;56.80;;;;;;5043047;28;20041;-60
2022/07/04 06:53:13;;;;;;;2.15;1.98;;;23.20;56.80;;;;;;5038156;28;20064;-60
2022/07/04 06:55:42;;;;;;;2.05;1.95;;;23.20;57.00;;;;;;5032199;28;21400;-60
2022/07/04 06:58:10;;;;;;;2.05;1.73;;;23.20;57.00;;;;;;5032265;28;20118;-60
2022/07/04 07:00:38;;;;;;;2.80;1.65;;;23.30;57.20;;;;;;5034362;28;20067;-59
2022/07/04 07:03:05;;;;;;;1.90;1.80;;;23.30;57.30;;;;;;5037258;28;20049;-61
2022/07/04 07:05:34;;;;;;;2.20;1.77;;;23.30;57.20;;;;;;5035875;28;20076;-59
2022/07/04 07:08:21;;;;;;;2.20;2.00;;;23.30;57.10;;;;;;5033468;28;20044;-60
2022/07/04 07:10:48;;;;;;;2.47;1.83;;;23.30;57.10;;;;;;5042128;28;20081;-59
2022/07/04 07:13:16;;;;;;;2.17;1.85;;;23.40;57.30;;;;;;5039050;28;20052;-61
2022/07/04 07:15:44;;;;;;;1.85;1.75;;;23.40;57.10;;;;;;5034034;28;20132;-60
2022/07/04 07:18:11;;;;;;;2.00;1.90;;;23.30;57.20;;;;;;5032026;28;20176;-60
2022/07/04 07:20:38;;;;;;;2.00;1.90;;;23.30;57.30;;;;;;5030385;28;20114;-60
2022/07/04 07:23:05;;;;;;;1.77;1.67;;;23.30;57.40;;;;;;5038963;28;20076;-60
2022/07/04 07:25:32;;;;;;;2.55;1.42;;;23.40;57.40;;;;;;5040655;28;20068;-59
2022/07/04 07:28:00;;;;;;;2.08;1.88;;;23.40;57.30;;;;;;5039938;28;20055;-61
2022/07/04 07:30:27;;;;;;;2.13;1.98;;;23.50;57.30;;;;;;5030642;28;20098;-60
2022/07/04 07:32:55;;;;;;;1.88;1.77;;;23.50;57.20;;;;;;5031446;28;20048;-61
2022/07/04 07:35:22;;;;;;;1.80;1.70;;;23.40;57.20;;;;;;5031277;28;20541;-62
2022/07/04 07:37:49;;;;;;;2.72;1.98;;;23.50;57.30;;;;;;5064329;28;20055;-62
2022/07/04 07:40:16;;;;;;;1.88;1.77;;;23.50;57.40;;;;;;5032791;28;20052;-62
2022/07/04 07:42:44;;;;;;;1.90;1.80;;;23.50;57.30;;;;;;5033589;28;20456;-61
2022/07/04 07:45:11;;;;;;;1.50;1.40;;;23.40;57.40;;;;;;5031754;28;20053;-62
2022/07/04 07:47:38;;;;;;;1.80;1.70;;;23.40;57.50;;;;;;5027297;28;20477;-62
2022/07/04 07:50:06;;;;;;;1.50;1.40;;;23.40;57.60;;;;;;5034840;28;20125;-62
2022/07/04 07:52:33;;;;;;;1.90;1.80;;;23.40;57.50;;;;;;5038554;28;20045;-63
2022/07/04 07:55:01;;;;;;;1.80;1.70;;;23.40;57.70;;;;;;5036931;28;20045;-62
2022/07/04 07:57:29;;;;;;;2.40;1.90;;;23.30;57.80;;;;;;5034034;28;20136;-61
2022/07/04 07:59:57;;;;;;;1.98;1.88;;;23.30;57.70;;;;;;5034256;28;20521;-62
2022/07/04 08:05:12;;;;;;;2.47;1.60;;;23.40;57.70;;;;;;5040153;28;20063;-62
2022/07/04 08:07:39;;;;;;;1.70;1.60;;;23.40;57.70;;;;;;5037416;28;20122;-64
2022/07/04 08:10:07;;;;;;;1.65;1.55;;;23.40;57.70;;;;;;5038665;28;20294;-63
2022/07/04 08:12:36;;;;;;;1.98;1.88;;;23.40;57.80;;;;;;5042429;28;20199;-62
2022/07/04 08:15:03;;;;;;;1.67;1.55;;;23.40;57.60;;;;;;5043021;28;20141;-61
2022/07/04 08:17:34;;;;;;;2.03;1.92;;;23.40;57.60;;;;;;5035398;28;20049;-61
2022/07/04 08:20:05;;;;;;;1.60;1.50;;;23.40;57.60;;;;;;5039995;28;20055;-61
2022/07/04 08:22:32;;;;;;;1.65;1.55;;;23.30;57.40;;;;;;5040202;28;20640;-61
2022/07/04 08:25:00;;;;;;;1.80;1.70;;;23.30;57.30;;;;;;5029651;28;20106;-61
2022/07/04 08:27:27;;;;;;;1.60;1.50;;;23.40;57.30;;;;;;5028479;28;20041;-60
2022/07/04 08:29:59;;;;;;;2.08;1.90;;;23.40;57.40;;;;;;5036167;28;20048;-60
2022/07/04 08:32:27;;;;;;;2.00;1.90;;;23.40;57.50;;;;;;5032055;28;20481;-61
2022/07/04 08:34:55;;;;;;;1.58;1.50;;;23.40;57.40;;;;;;5035285;28;20073;-60
2022/07/04 08:37:23;;;;;;;1.65;1.55;;;23.40;57.50;;;;;;5034685;28;20049;-61
2022/07/04 08:39:51;;;;;;;1.90;1.80;;;23.40;57.50;;;;;;5062719;28;20064;-60
2022/07/04 08:42:19;;;;;;;1.70;1.60;;;23.40;57.50;;;;;;5028186;28;20095;-60
2022/07/04 08:44:52;;;;;;;1.52;1.40;;;23.40;57.50;;;;;;5030727;28;20049;-60
2022/07/04 08:47:21;;;;;;;1.88;1.70;;;23.50;57.70;;;;;;5032807;28;20772;-60
2022/07/04 08:49:58;;;;;;;2.25;2.05;;;23.50;57.60;;;;;;5033797;28;20643;-58
2022/07/04 08:52:36;;;;;;;1.88;1.65;;;23.50;57.50;;;;;;5036414;28;20072;-58
2022/07/04 09:00:43;;;;;;;1.92;1.70;;;23.50;57.70;;;;;;5028901;28;20053;-60
2022/07/04 09:03:10;;;;;;;1.65;1.55;;;23.50;57.60;;;;;;5034468;28;20575;-61
2022/07/04 09:05:39;;;;;;;1.60;1.50;;;23.50;57.60;;;;;;5042716;28;20513;-61
2022/07/04 09:08:06;;;;;;;1.45;1.40;;;23.50;57.60;;;;;;5040028;28;20523;-60
2022/07/04 09:10:34;;;;;;;2.03;1.75;;;23.50;58.10;;;;;;5040034;28;20095;-60
2022/07/04 09:13:04;;;;;;;1.90;1.80;;;23.50;57.60;;;;;;5041210;28;20041;-60
2022/07/04 09:15:42;;;;;;;1.90;1.80;;;23.50;57.50;;;;;;5032066;28;20132;-61
2022/07/04 09:18:31;;;;;;;1.40;1.40;;;23.50;57.50;;;;;;5031958;28;20049;-61
2022/07/04 09:21:01;;;;;;;1.20;1.20;;;23.50;57.50;;;;;;5036327;28;20048;-63
2022/07/04 09:23:31;;;;;;;1.50;1.40;;;23.50;57.40;;;;;;5040489;28;20103;-63
2022/07/04 09:26:20;;;;;;;1.63;1.52;;;23.50;57.30;;;;;;5032589;28;20061;-62
2022/07/04 09:28:53;;;;;;;2.33;1.83;;;23.50;57.20;;;;;;5045262;28;20547;-62
2022/07/04 09:31:23;;;;;;;1.88;1.77;;;23.50;57.20;;;;;;5034559;28;20053;-61
2022/07/04 09:33:57;;;;;;;1.60;1.55;;;23.50;57.50;;;;;;5033988;28;20375;-61
2022/07/04 09:36:28;;;;;;;1.85;1.75;;;23.50;57.50;;;;;;5035366;28;20079;-61
2022/07/04 09:39:19;;;;;;;1.77;1.67;;;23.50;57.50;;;;;;5058657;28;20087;-61
2022/07/04 09:41:59;;;;;;;1.70;1.60;;;23.60;57.50;;;;;;5033883;28;20057;-62
2022/07/04 09:44:44;;;;;;;1.80;1.70;;;23.60;57.50;;;;;;5041756;28;20054;-61
2022/07/04 09:47:30;;;;;;;1.92;1.83;;;23.60;57.40;;;;;;5043710;28;20860;-61
2022/07/04 09:50:06;;;;;;;1.95;1.85;;;23.60;57.50;;;;;;5051620;28;20768;-61
2022/07/04 09:53:00;;;;;;;1.88;1.77;;;23.60;57.30;;;;;;5038107;28;20049;-62
2022/07/04 09:55:39;;;;;;;1.75;1.65;;;23.60;57.20;;;;;;5033398;28;20053;-62
2022/07/04 09:58:10;;;;;;;2.88;1.60;;;23.60;57.20;;;;;;5039552;28;20548;-61
2022/07/04 10:00:42;;;;;;;1.73;1.60;;;23.60;57.30;;;;;;5041197;28;20052;-61
2022/07/04 10:03:32;;;;;;;2.28;2.00;;;23.60;57.30;;;;;;5045103;28;20037;-63
2022/07/04 10:06:11;;;;;;;2.55;1.90;;;23.60;57.30;;;;;;5036238;28;20037;-61
2022/07/04 10:08:41;;;;;;;1.65;1.55;;;23.60;57.40;;;;;;5042980;28;20425;-61
2022/07/04 10:11:09;;;;;;;2.15;1.95;;;23.60;57.50;;;;;;5041911;28;20091;-61
2022/07/04 10:13:44;;;;;;;1.92;1.83;;;23.60;57.30;;;;;;5046658;28;20102;-61
2022/07/04 10:16:12;;;;;;;1.70;1.60;;;23.60;57.30;;;;;;5043471;28;20041;-61
2022/07/04 10:18:40;;;;;;;2.08;1.98;;;23.60;57.40;;;;;;5042437;28;20140;-61
2022/07/04 10:21:08;;;;;;;2.20;2.00;;;23.60;57.60;;;;;;5041029;28;20420;-61
2022/07/04 10:23:36;;;;;;;2.10;2.00;;;23.60;57.50;;;;;;5044573;28;20067;-61
2022/07/04 10:26:03;;;;;;;3.13;2.00;;;23.60;57.60;;;;;;5041626;28;20130;-61
2022/07/04 10:28:32;;;;;;;1.48;1.42;;;23.60;57.50;;;;;;5035611;28;20087;-61
2022/07/04 10:31:01;;;;;;;1.75;1.65;;;23.60;57.60;;;;;;5033324;28;20094;-61
2022/07/04 10:33:30;;;;;;;1.90;1.80;;;23.60;57.60;;;;;;5034461;28;21563;-61
2022/07/04 10:36:01;;;;;;;2.88;1.52;;;23.60;57.50;;;;;;5039106;28;20488;-61
2022/07/04 10:38:34;;;;;;;1.95;1.85;;;23.60;57.60;;;;;;5038392;28;20044;-61
2022/07/04 10:41:04;;;;;;;3.78;2.08;;;23.60;57.60;;;;;;5040536;28;20446;-61
2022/07/04 10:43:52;;;;;;;;;;;23.60;57.60;;;;;;5033120;28;20060;-61
2022/07/04 10:46:24;;;;;;;2.45;1.75;;;23.60;57.60;;;;;;5031240;28;19974;-60
2022/07/04 10:48:53;;;;;;;3.22;1.83;;;23.60;57.60;;;;;;5035239;28;20083;-61
2022/07/04 10:51:44;;;;;;;1.77;1.67;;;23.60;57.40;;;;;;5038811;28;20510;-61
2022/07/04 10:54:31;;;;;;;2.17;2.00;;;23.70;57.30;;;;;;5036327;28;20506;-61
2022/07/04 10:57:24;;;;;;;2.10;1.90;;;23.60;57.10;;;;;;5042203;28;20083;-60
2022/07/04 11:00:07;;;;;;;2.40;2.20;;;23.60;57.10;;;;;;5045501;28;20061;-61
2022/07/04 11:02:37;;;;;;;2.63;2.42;;;23.60;57.10;;;;;;5041119;28;20052;-61
2022/07/04 11:05:08;;;;;;;2.22;2.03;;;23.60;57.00;;;;;;5038038;28;20138;-60
2022/07/04 11:07:56;;;;;;;2.47;2.22;;;23.60;57.00;;;;;;5037612;28;20045;-60
2022/07/04 11:10:25;;;;;;;2.05;1.95;;;23.60;56.90;;;;;;5039933;28;20077;-61
2022/07/04 11:13:06;;;;;;;2.22;2.03;;;23.60;56.80;;;;;;5039096;28;20045;-61
2022/07/04 11:16:00;;;;;;;2.35;2.15;;;23.60;56.80;;;;;;5035091;28;20486;-61
2022/07/04 11:18:28;;;;;;;2.53;2.33;;;23.60;56.80;;;;;;5028548;28;20045;-61
2022/07/04 11:20:55;;;;;;;2.60;2.15;;;23.60;56.80;;;;;;5040984;28;20095;-61
2022/07/04 11:23:24;;;;;;;2.50;2.30;;;23.60;56.80;;;;;;5033242;28;20544;-61
2022/07/04 11:25:54;;;;;;;2.00;1.90;;;23.60;56.90;;;;;;5027530;28;20049;-61
2022/07/04 11:28:34;;;;;;;2.47;2.28;;;23.60;57.10;;;;;;5039834;28;20486;-61
2022/07/04 11:31:12;;;;;;;3.17;2.45;;;23.60;56.90;;;;;;5037040;28;20053;-61
2022/07/04 11:33:41;;;;;;;2.75;2.30;;;23.60;56.90;;;;;;5035579;28;20077;-61
2022/07/04 11:36:17;;;;;;;2.45;1.85;;;23.60;57.00;;;;;;5029567;28;20127;-61
2022/07/04 11:38:48;;;;;;;2.38;2.17;;;23.60;56.90;;;;;;5035994;28;20475;-62
2022/07/04 11:47:06;;;;;;;2.42;2.22;;;23.60;56.90;;;;;;5037924;28;20118;-61
2022/07/04 11:49:34;;;;;;;2.20;2.08;;;23.60;56.80;;;;;;5034628;28;20106;-61
2022/07/04 11:52:01;;;;;;;2.55;2.35;;;23.60;56.80;;;;;;5030859;28;20045;-61
2022/07/04 11:54:30;;;;;;;5.38;2.40;;;23.60;56.80;;;;;;5042846;28;20045;-61
2022/07/04 11:57:26;;;;;;;3.33;2.17;;;23.60;56.90;;;;;;5036198;28;20045;-61
2022/07/04 12:00:06;;;;;;;2.33;2.13;;;23.60;56.80;;;;;;5039483;28;20045;-61
2022/07/04 12:02:38;;;;;;;2.30;2.10;;;23.60;56.70;;;;;;5035831;28;20063;-61
2022/07/04 12:05:09;;;;;;;2.58;2.10;;;23.60;56.60;;;;;;5037614;28;20587;-61
2022/07/04 12:07:41;;;;;;;2.75;2.20;;;23.70;56.70;;;;;;5038958;28;20056;-62
2022/07/04 12:10:28;;;;;;;2.60;2.40;;;23.70;56.70;;;;;;5033443;28;20519;-61
2022/07/04 12:13:07;;;;;;;2.17;2.00;;;23.60;56.60;;;;;;5034895;28;20052;-62
2022/07/04 12:15:38;;;;;;;2.17;1.88;;;23.60;56.60;;;;;;5029322;28;20084;-61
2022/07/04 12:18:17;;;;;;;4.30;2.42;;;23.60;56.50;;;;;;5035975;28;20110;-61
2022/07/04 12:20:44;;;;;;;2.00;1.90;;;23.70;56.60;;;;;;5038530;28;20393;-61
2022/07/04 12:23:11;;;;;;;2.10;1.90;;;23.70;56.60;;;;;;5033467;28;20049;-61
2022/07/04 12:25:39;;;;;;;2.28;2.15;;;23.70;56.60;;;;;;5032563;28;20052;-61
2022/07/04 12:28:16;;;;;;;1.92;1.80;;;23.70;56.60;;;;;;5035046;28;20095;-62
2022/07/04 12:30:58;;;;;;;2.03;1.92;;;23.70;56.60;;;;;;5026087;28;20587;-61
2022/07/04 12:33:28;;;;;;;2.53;2.33;;;23.70;56.60;;;;;;5032116;28;20056;-61
2022/07/04 12:36:03;;;;;;;2.08;1.88;;;23.70;56.60;;;;;;5063749;28;20410;-61
2022/07/04 12:38:36;;;;;;;1.90;1.80;;;23.70;56.60;;;;;;5038024;28;20045;-60
2022/07/04 12:41:07;;;;;;;2.90;1.73;;;23.70;56.60;;;;;;5029966;28;20340;-61
2022/07/04 12:43:48;;;;;;;2.08;1.58;;;23.70;56.60;;;;;;5024635;28;20698;-63
2022/07/04 12:46:31;;;;;;;2.17;1.98;;;23.70;56.50;;;;;;5029151;28;20041;-60
2022/07/04 12:49:00;;;;;;;2.55;2.25;;;23.80;56.60;;;;;;5033993;28;20490;-61
2022/07/04 12:51:33;;;;;;;2.30;2.00;;;23.80;56.60;;;;;;5039053;28;21058;-60
2022/07/04 12:54:08;;;;;;;2.10;2.00;;;23.80;56.50;;;;;;5035672;28;20049;-61
2022/07/04 12:56:42;;;;;;;2.58;2.30;;;23.80;56.60;;;;;;5028718;28;20072;-60
2022/07/04 12:59:13;;;;;;;2.15;2.05;;;23.80;56.60;;;;;;5031726;28;20805;-61
2022/07/04 13:01:41;;;;;;;2.43;2.17;;;23.70;56.70;;;;;;5029476;28;20098;-61
2022/07/04 13:04:09;;;;;;;2.10;1.90;;;23.80;56.70;;;;;;5031737;28;20048;-61
2022/07/04 13:06:36;;;;;;;2.05;1.95;;;23.80;56.60;;;;;;5035963;28;20379;-61
2022/07/04 13:09:07;;;;;;;2.22;2.08;;;23.80;56.50;;;;;;5038453;28;20102;-61
2022/07/04 13:14:21;;;;;;;2.67;2.30;;;23.80;56.60;;;;;;5034359;28;20053;-61
2022/07/04 13:16:49;;;;;;;1.83;1.73;;;23.70;56.60;;;;;;5037672;28;20076;-61
2022/07/04 13:19:19;;;;;;;2.33;2.15;;;23.70;56.70;;;;;;5039546;28;20054;-60
2022/07/04 13:21:49;;;;;;;2.17;2.08;;;23.70;56.70;;;;;;5044208;28;20080;-60
2022/07/04 13:24:17;;;;;;;2.33;2.22;;;23.70;56.80;;;;;;5040917;28;20146;-62
2022/07/04 13:26:44;;;;;;;2.40;2.22;;;23.70;57.00;;;;;;5033098;28;20135;-61